Time;durP1;ratioP1;P1;durP2;ratioP2;P2;SDS_P1;SDS_P2;PMS_P1;PMS_P2;Temp;Humidity;BMP_temperature;BMP_pressure;BME280_temperature;BME280_humidity;BME280_pressure;Samples;Min_cycle;Max_cycle;Signal;HPM_P1;HPM_P2
2022/09/04 00:08:35;;;;;;;6.93;2.97;;;15.10;99.90;;;;;;20753293;28;20092;-77
2022/09/04 00:18:45;;;;;;;6.13;2.70;;;15.00;99.90;;;;;;20760512;28;20045;-77
2022/09/04 00:28:48;;;;;;;4.50;2.70;;;15.00;99.90;;;;;;20751370;28;20046;-77
2022/09/04 00:38:56;;;;;;;6.75;2.88;;;14.90;99.90;;;;;;20792919;22;20189;-77
2022/09/04 00:49:49;;;;;;;8.00;3.33;;;14.90;99.90;;;;;;20999238;28;20510;-79
2022/09/04 01:00:03;;;;;;;;;;;14.70;99.90;;;;;;20952015;28;20114;-78
2022/09/04 01:10:13;;;;;;;;;;;14.60;99.90;;;;;;20995964;28;20335;-79
2022/09/04 01:20:28;;;;;;;5.50;2.60;;;14.50;99.90;;;;;;21089293;28;19960;-78
2022/09/04 01:30:58;;;;;;;5.88;2.78;;;14.30;99.90;;;;;;21010956;28;20036;-79
2022/09/04 01:41:17;;;;;;;5.72;2.92;;;14.00;99.90;;;;;;20980965;28;20093;-76
2022/09/04 01:51:24;;;;;;;6.97;2.65;;;14.10;99.90;;;;;;21021957;28;20083;-78
2022/09/04 02:01:24;;;;;;;9.85;3.35;;;14.20;99.90;;;;;;21005507;28;20047;-79
2022/09/04 02:11:28;;;;;;;8.33;2.77;;;14.20;99.90;;;;;;21005901;28;20033;-78
2022/09/04 02:21:47;;;;;;;5.32;3.40;;;14.10;99.90;;;;;;20997072;28;20124;-78
2022/09/04 02:32:03;;;;;;;6.30;2.72;;;14.10;99.90;;;;;;20976243;28;20041;-77
2022/09/04 02:42:13;;;;;;;5.50;3.40;;;14.20;99.90;;;;;;21012680;28;20052;-79
2022/09/04 02:52:32;;;;;;;4.45;3.17;;;14.10;99.90;;;;;;21004687;28;20141;-77
2022/09/04 03:02:57;;;;;;;7.22;3.88;;;13.90;99.90;;;;;;21001783;28;20574;-78
2022/09/04 03:13:12;;;;;;;8.57;3.88;;;13.80;99.90;;;;;;21017778;28;20044;-78
2022/09/04 03:23:35;;;;;;;8.73;5.05;;;13.80;99.90;;;;;;21018295;28;20043;-79
2022/09/04 03:33:42;;;;;;;8.32;5.20;;;13.80;99.90;;;;;;21016881;28;20098;-78
2022/09/04 03:44:14;;;;;;;7.57;4.70;;;13.80;99.90;;;;;;20996709;28;20044;-79
2022/09/04 03:54:23;;;;;;;4.60;3.40;;;13.90;99.90;;;;;;21011780;28;20036;-77
2022/09/04 04:04:59;;;;;;;5.68;3.63;;;13.70;99.90;;;;;;20994659;28;20498;-78
2022/09/04 04:15:09;;;;;;;4.28;3.40;;;13.60;99.90;;;;;;20937172;28;20040;-77
2022/09/04 04:25:30;;;;;;;8.18;3.08;;;13.70;99.90;;;;;;21002102;28;20040;-78
2022/09/04 04:35:53;;;;;;;6.20;2.97;;;13.60;99.90;;;;;;20985058;28;20051;-79
2022/09/04 04:46:35;;;;;;;5.18;3.15;;;13.60;99.90;;;;;;21014735;28;20049;-79
2022/09/04 04:57:00;;;;;;;6.20;3.67;;;13.40;99.90;;;;;;20995546;28;20032;-79
2022/09/04 05:07:35;;;;;;;6.25;3.53;;;13.40;99.90;;;;;;21010663;28;20043;-78
2022/09/04 05:17:51;;;;;;;16.67;7.90;;;13.40;99.90;;;;;;20991460;28;20044;-78
2022/09/04 05:28:06;;;;;;;89.70;10.73;;;13.60;99.90;;;;;;20991400;28;20079;-80
2022/09/04 05:38:12;;;;;;;19.88;8.98;;;13.60;99.90;;;;;;21005438;28;20040;-79
2022/09/04 05:48:41;;;;;;;11.98;8.10;;;13.60;99.90;;;;;;20968194;28;20044;-78
2022/09/04 05:59:18;;;;;;;15.15;8.65;;;13.60;99.90;;;;;;21002483;28;20048;-79
2022/09/04 06:09:34;;;;;;;19.75;9.98;;;13.80;99.90;;;;;;20988771;28;20052;-78
2022/09/04 06:20:03;;;;;;;22.92;10.68;;;14.10;99.90;;;;;;20960298;28;20036;-79
2022/09/04 06:30:16;;;;;;;22.38;10.85;;;14.30;99.90;;;;;;21000699;28;20045;-78
2022/09/04 06:40:45;;;;;;;31.20;10.70;;;14.50;99.90;;;;;;21017354;22;20063;-74
2022/09/04 06:50:58;;;;;;;25.02;11.65;;;14.80;99.90;;;;;;21055942;28;20121;-74
2022/09/04 07:01:22;;;;;;;25.80;11.95;;;15.00;99.90;;;;;;20989546;28;20032;-76
2022/09/04 07:11:46;;;;;;;23.23;10.32;;;15.00;99.90;;;;;;20967257;28;20395;-75
2022/09/04 07:21:53;;;;;;;22.58;10.57;;;15.10;99.90;;;;;;20991091;28;20094;-75
2022/09/04 07:32:34;;;;;;;24.17;11.93;;;15.60;99.90;;;;;;20994361;28;20043;-77
2022/09/04 07:42:58;;;;;;;38.65;15.70;;;15.70;99.90;;;;;;20932925;28;20105;-77
2022/09/04 07:53:27;;;;;;;43.45;15.93;;;15.70;99.90;;;;;;21006528;28;20089;-77
2022/09/04 08:04:05;;;;;;;40.35;14.05;;;16.00;99.90;;;;;;21007032;28;20506;-77
2022/09/04 08:14:26;;;;;;;30.10;12.32;;;16.50;99.90;;;;;;21003674;28;20040;-77
2022/09/04 08:24:27;;;;;;;26.30;11.40;;;17.70;99.90;;;;;;20988105;28;20514;-77
2022/09/04 08:34:39;;;;;;;31.13;13.70;;;19.40;99.90;;;;;;21015933;28;20092;-77
2022/09/04 08:45:05;;;;;;;18.63;10.57;;;19.00;99.90;;;;;;20983253;28;20080;-77
2022/09/04 08:55:17;;;;;;;22.10;8.55;;;19.70;99.90;;;;;;21001666;28;20111;-77
2022/09/04 09:05:46;;;;;;;17.33;9.43;;;21.20;99.90;;;;;;20997868;28;20033;-77
2022/09/04 09:16:14;;;;;;;15.35;8.75;;;21.30;99.90;;;;;;20995282;28;20040;-77
2022/09/04 09:26:51;;;;;;;13.85;8.20;;;21.80;99.90;;;;;;20975473;28;20055;-77
2022/09/04 09:37:29;;;;;;;12.63;7.28;;;21.50;99.90;;;;;;20966758;28;20506;-77
2022/09/04 09:47:55;;;;;;;16.08;8.75;;;21.90;99.90;;;;;;20999732;28;20111;-77
2022/09/04 09:58:17;;;;;;;13.68;6.93;;;22.40;99.90;;;;;;20981713;28;20388;-76
2022/09/04 10:08:18;;;;;;;12.00;7.60;;;22.50;99.90;;;;;;21001173;28;20072;-77
2022/09/04 10:18:38;;;;;;;;;;;23.00;99.90;;;;;;21000272;28;20036;-77
2022/09/04 10:28:44;;;;;;;11.32;5.28;;;25.60;99.90;;;;;;20936276;28;20402;-77
2022/09/04 10:50:12;;;;;;;7.68;4.60;;;25.90;99.90;;;;;;20914821;28;20099;-77
2022/09/04 11:00:20;;;;;;;5.30;3.65;;;28.20;99.90;;;;;;20895487;28;20072;-77
2022/09/04 11:10:39;;;;;;;4.28;2.88;;;28.90;99.90;;;;;;20971710;28;20066;-76
2022/09/04 11:21:02;;;;;;;4.57;2.75;;;29.00;99.90;;;;;;21015888;28;20048;-76
2022/09/04 11:31:19;;;;;;;4.80;2.38;;;28.90;99.90;;;;;;21014890;28;20040;-77
2022/09/04 11:41:51;;;;;;;5.93;3.00;;;28.60;99.90;;;;;;20992145;28;20075;-77
2022/09/04 11:52:19;;;;;;;5.97;2.08;;;29.70;99.90;;;;;;21006909;28;20510;-76
2022/09/04 12:02:44;;;;;;;3.58;1.95;;;28.80;99.90;;;;;;21009009;28;20124;-76
2022/09/04 12:13:15;;;;;;;3.40;1.30;;;29.30;99.90;;;;;;21042300;28;20131;-76
2022/09/04 12:23:31;;;;;;;3.03;1.50;;;29.20;99.90;;;;;;20948928;28;20051;-76
2022/09/04 12:33:55;;;;;;;2.40;1.42;;;29.20;99.90;;;;;;21045408;28;20024;-78
2022/09/04 12:44:05;;;;;;;2.65;1.10;;;28.40;99.90;;;;;;21063867;28;20039;-79
2022/09/04 12:54:19;;;;;;;1.30;1.13;;;29.90;99.90;;;;;;21045766;28;20089;-79
2022/09/04 13:04:26;;;;;;;2.28;1.20;;;30.00;99.90;;;;;;21009905;28;20046;-79
2022/09/04 13:14:49;;;;;;;1.70;1.10;;;30.40;99.90;;;;;;21006276;28;20028;-78
2022/09/04 13:25:21;;;;;;;1.67;1.00;;;29.40;99.90;;;;;;20990737;28;20051;-79
2022/09/04 13:35:37;;;;;;;2.20;1.48;;;29.70;99.90;;;;;;20941585;22;20049;-83
2022/09/04 13:45:45;;;;;;;2.35;1.05;;;28.90;99.90;;;;;;20814275;28;20524;-82
2022/09/04 13:55:56;;;;;;;1.63;1.25;;;29.20;99.90;;;;;;20848555;28;20106;-82
2022/09/04 14:05:58;;;;;;;2.45;1.30;;;29.20;99.90;;;;;;20914591;28;20064;-82
2022/09/04 14:16:02;;;;;;;2.50;1.25;;;29.30;99.90;;;;;;20916105;28;20037;-82
2022/09/04 14:26:23;;;;;;;5.40;1.42;;;28.80;99.90;;;;;;20882469;28;20048;-82
2022/09/04 14:36:53;;;;;;;;;;;29.40;99.90;;;;;;20898726;28;20044;-82
2022/09/04 14:47:25;;;;;;;1.70;0.90;;;29.00;99.90;;;;;;20931844;28;19909;-82
2022/09/04 14:57:35;;;;;;;;;;;29.80;99.90;;;;;;20932035;28;20060;-83
2022/09/04 15:07:41;;;;;;;3.67;2.05;;;29.50;99.90;;;;;;20930964;28;19908;-81
2022/09/04 15:17:50;;;;;;;2.38;1.15;;;29.50;99.90;;;;;;20897760;28;20043;-84
2022/09/04 15:27:53;;;;;;;1.50;1.05;;;29.30;99.90;;;;;;20899707;28;20135;-83
2022/09/04 15:38:20;;;;;;;2.55;1.27;;;29.00;99.90;;;;;;20897988;28;20044;-82
2022/09/04 15:48:43;;;;;;;1.77;0.82;;;28.30;99.90;;;;;;20920886;28;20041;-84
2022/09/04 15:58:54;;;;;;;1.30;1.08;;;28.90;99.90;;;;;;20893468;28;20037;-81
2022/09/04 16:09:18;;;;;;;2.57;1.40;;;27.80;99.90;;;;;;20909973;28;20415;-82
2022/09/04 16:19:33;;;;;;;2.38;1.23;;;27.30;99.90;;;;;;20921682;28;20048;-83
2022/09/04 16:29:53;;;;;;;3.72;1.33;;;26.90;99.90;;;;;;20904648;28;20045;-83
2022/09/04 16:40:26;;;;;;;1.52;1.10;;;26.70;99.90;;;;;;20923451;28;20548;-83
2022/09/04 16:50:50;;;;;;;2.83;1.55;;;26.40;99.90;;;;;;20823607;28;20109;-85
2022/09/04 17:01:24;;;;;;;4.50;1.70;;;26.30;99.90;;;;;;20827262;28;20049;-83
2022/09/04 17:11:48;;;;;;;2.78;1.73;;;26.10;99.90;;;;;;20795292;28;20398;-85
2022/09/04 17:32:44;;;;;;;1.30;1.13;;;24.80;99.90;;;;;;20821826;28;20072;-83
2022/09/04 17:42:53;;;;;;;2.20;1.48;;;24.00;99.90;;;;;;20821658;28;20099;-84
2022/09/04 17:53:09;;;;;;;5.47;1.50;;;22.80;99.90;;;;;;20819245;28;20064;-83
2022/09/04 18:03:23;;;;;;;3.25;1.73;;;22.50;99.90;;;;;;20838998;28;20037;-81
2022/09/04 18:13:43;;;;;;;4.75;1.60;;;22.50;99.90;;;;;;20819073;28;20041;-84
2022/09/04 18:23:50;;;;;;;4.35;2.10;;;22.10;99.90;;;;;;20817936;28;20049;-83
2022/09/04 18:34:17;;;;;;;4.22;2.55;;;21.00;99.90;;;;;;20811257;28;20049;-84
2022/09/04 18:44:22;;;;;;;3.55;1.67;;;21.20;99.90;;;;;;20932635;22;20525;-80
2022/09/04 18:54:39;;;;;;;2.80;1.75;;;21.50;99.90;;;;;;20985901;28;20062;-79
2022/09/04 19:05:06;;;;;;;5.03;1.70;;;21.40;99.90;;;;;;20973265;28;20068;-79
2022/09/04 19:15:22;;;;;;;4.53;1.73;;;21.40;99.90;;;;;;20976422;28;20036;-81
2022/09/04 19:25:32;;;;;;;2.67;1.80;;;21.00;99.90;;;;;;20995133;28;20043;-81
2022/09/04 19:35:57;;;;;;;2.65;1.70;;;20.60;99.90;;;;;;21008730;28;20044;-80
2022/09/04 19:46:15;;;;;;;5.05;2.40;;;20.40;99.90;;;;;;21007079;28;20036;-79
2022/09/04 19:56:26;;;;;;;3.33;2.38;;;19.80;99.90;;;;;;21045692;28;20410;-79
2022/09/04 20:06:49;;;;;;;2.72;1.92;;;19.70;99.90;;;;;;21014641;28;20028;-80
2022/09/04 20:17:21;;;;;;;5.28;1.95;;;19.60;99.90;;;;;;21014448;28;20036;-78
2022/09/04 20:27:25;;;;;;;4.93;2.28;;;19.60;99.90;;;;;;20982762;28;20502;-78
2022/09/04 20:37:40;;;;;;;4.35;2.13;;;19.50;99.90;;;;;;21033078;28;20379;-78
2022/09/04 20:47:55;;;;;;;2.25;2.03;;;19.50;99.90;;;;;;21004059;28;20110;-79
2022/09/04 20:58:13;;;;;;;4.80;2.15;;;19.30;99.90;;;;;;21026374;28;20040;-77
2022/09/04 21:08:14;;;;;;;4.97;2.30;;;19.40;99.90;;;;;;21063425;28;20048;-80
2022/09/04 21:18:45;;;;;;;7.10;2.37;;;19.20;99.90;;;;;;20995438;28;20498;-79
2022/09/04 21:28:52;;;;;;;5.70;2.20;;;19.10;99.90;;;;;;20999344;28;20099;-79
2022/09/04 21:39:30;;;;;;;2.15;1.70;;;19.10;99.90;;;;;;21012224;28;20037;-76
2022/09/04 21:49:39;;;;;;;2.70;2.15;;;18.90;99.90;;;;;;20996594;28;20036;-79
2022/09/04 22:00:12;;;;;;;7.15;2.33;;;19.00;99.90;;;;;;20980163;28;20052;-80
2022/09/04 22:10:38;;;;;;;3.15;1.90;;;18.70;99.90;;;;;;20997888;28;20044;-80
2022/09/04 22:21:00;;;;;;;4.47;2.20;;;18.70;99.90;;;;;;20996712;28;20090;-80
2022/09/04 22:31:23;;;;;;;2.78;1.80;;;18.40;99.90;;;;;;20978748;28;20072;-81
2022/09/04 22:41:41;;;;;;;2.50;1.92;;;18.00;99.90;;;;;;20962309;28;20040;-78
2022/09/04 22:51:57;;;;;;;4.80;2.08;;;17.30;99.90;;;;;;21015356;28;20135;-81
2022/09/04 23:02:30;;;;;;;3.05;2.10;;;17.60;99.90;;;;;;21011353;28;20499;-79
2022/09/04 23:12:31;;;;;;;4.57;1.77;;;17.70;99.90;;;;;;21012052;28;20032;-80
2022/09/04 23:22:59;;;;;;;4.13;2.07;;;17.60;99.90;;;;;;21011597;28;20582;-81
2022/09/04 23:33:33;;;;;;;7.78;2.78;;;17.50;99.90;;;;;;20992781;28;20044;-80
2022/09/04 23:44:10;;;;;;;5.78;2.10;;;17.60;99.90;;;;;;20991052;28;20166;-78
2022/09/04 23:54:32;;;;;;;3.00;1.80;;;17.50;99.90;;;;;;21008031;28;20120;-78
